sensor_id;sensor_type;location;lat;lon;timestamp;temperature;humidity
53208;DHT22;39093;52.788;6.940;2022-10-16T00:01:23;13.50;99.90
53208;DHT22;39093;52.788;6.940;2022-10-16T00:03:50;13.40;99.90
53208;DHT22;39093;52.788;6.940;2022-10-16T00:06:19;13.50;99.90
53208;DHT22;39093;52.788;6.940;2022-10-16T00:08:47;13.50;99.90
53208;DHT22;39093;52.788;6.940;2022-10-16T00:11:17;13.50;99.90
53208;DHT22;39093;52.788;6.940;2022-10-16T00:13:47;13.60;99.90
53208;DHT22;39093;52.788;6.940;2022-10-16T00:16:15;13.50;99.90
53208;DHT22;39093;52.788;6.940;2022-10-16T00:18:42;13.50;99.90
53208;DHT22;39093;52.788;6.940;2022-10-16T00:21:12;13.50;99.90
53208;DHT22;39093;52.788;6.940;2022-10-16T00:23:39;13.50;99.90
53208;DHT22;39093;52.788;6.940;2022-10-16T00:26:10;13.40;99.90
53208;DHT22;39093;52.788;6.940;2022-10-16T00:28:38;13.50;99.90
53208;DHT22;39093;52.788;6.940;2022-10-16T00:31:06;13.40;99.90
53208;DHT22;39093;52.788;6.940;2022-10-16T00:33:34;13.50;99.90
53208;DHT22;39093;52.788;6.940;2022-10-16T00:36:03;13.50;99.90
53208;DHT22;39093;52.788;6.940;2022-10-16T00:38:30;13.50;99.90
53208;DHT22;39093;52.788;6.940;2022-10-16T00:40:57;13.40;99.90
53208;DHT22;39093;52.788;6.940;2022-10-16T00:46:13;13.40;99.90
53208;DHT22;39093;52.788;6.940;2022-10-16T00:48:45;13.50;99.90
53208;DHT22;39093;52.788;6.940;2022-10-16T00:51:12;13.50;99.90
53208;DHT22;39093;52.788;6.940;2022-10-16T00:53:40;13.40;99.90
53208;DHT22;39093;52.788;6.940;2022-10-16T00:56:07;13.40;99.90
53208;DHT22;39093;52.788;6.940;2022-10-16T00:58:34;13.40;99.90
53208;DHT22;39093;52.788;6.940;2022-10-16T01:01:01;13.40;99.90
53208;DHT22;39093;52.788;6.940;2022-10-16T01:03:31;13.30;99.90
53208;DHT22;39093;52.788;6.940;2022-10-16T01:08:53;13.30;99.90
53208;DHT22;39093;52.788;6.940;2022-10-16T01:11:45;13.40;99.90
53208;DHT22;39093;52.788;6.940;2022-10-16T01:14:24;13.30;99.90
53208;DHT22;39093;52.788;6.940;2022-10-16T01:17:00;13.40;99.90
53208;DHT22;39093;52.788;6.940;2022-10-16T01:22:53;13.40;99.90
53208;DHT22;39093;52.788;6.940;2022-10-16T01:25:37;13.40;99.90
53208;DHT22;39093;52.788;6.940;2022-10-16T01:28:08;13.30;99.90
53208;DHT22;39093;52.788;6.940;2022-10-16T01:30:40;13.20;99.90
53208;DHT22;39093;52.788;6.940;2022-10-16T01:33:24;13.20;99.90
53208;DHT22;39093;52.788;6.940;2022-10-16T01:35:54;13.30;99.90
53208;DHT22;39093;52.788;6.940;2022-10-16T01:38:29;13.30;99.90
53208;DHT22;39093;52.788;6.940;2022-10-16T01:41:01;13.40;99.90
53208;DHT22;39093;52.788;6.940;2022-10-16T01:44:39;13.30;99.90
53208;DHT22;39093;52.788;6.940;2022-10-16T01:46:38;13.30;99.90
53208;DHT22;39093;52.788;6.940;2022-10-16T01:49:06;13.30;99.90
53208;DHT22;39093;52.788;6.940;2022-10-16T01:51:35;13.30;99.90
53208;DHT22;39093;52.788;6.940;2022-10-16T01:54:05;13.20;99.90
53208;DHT22;39093;52.788;6.940;2022-10-16T01:56:34;13.20;99.90
53208;DHT22;39093;52.788;6.940;2022-10-16T01:59:06;13.10;99.90
53208;DHT22;39093;52.788;6.940;2022-10-16T02:01:35;13.10;99.90
53208;DHT22;39093;52.788;6.940;2022-10-16T02:04:09;13.10;99.90
53208;DHT22;39093;52.788;6.940;2022-10-16T02:06:38;13.10;99.90
53208;DHT22;39093;52.788;6.940;2022-10-16T02:09:04;13.00;99.90
53208;DHT22;39093;52.788;6.940;2022-10-16T02:11:31;13.10;99.90
53208;DHT22;39093;52.788;6.940;2022-10-16T02:14:04;13.20;99.90
53208;DHT22;39093;52.788;6.940;2022-10-16T02:16:41;13.10;99.90
53208;DHT22;39093;52.788;6.940;2022-10-16T02:19:08;13.10;99.90
53208;DHT22;39093;52.788;6.940;2022-10-16T02:24:32;13.10;99.90
53208;DHT22;39093;52.788;6.940;2022-10-16T02:30:25;13.10;99.90
53208;DHT22;39093;52.788;6.940;2022-10-16T02:32:56;13.20;99.90
53208;DHT22;39093;52.788;6.940;2022-10-16T02:35:25;13.10;99.90
53208;DHT22;39093;52.788;6.940;2022-10-16T02:37:54;13.00;99.90
53208;DHT22;39093;52.788;6.940;2022-10-16T02:40:22;13.00;99.90
53208;DHT22;39093;52.788;6.940;2022-10-16T02:42:53;13.10;99.90
53208;DHT22;39093;52.788;6.940;2022-10-16T02:45:22;13.00;99.90
53208;DHT22;39093;52.788;6.940;2022-10-16T02:47:49;13.10;99.90
53208;DHT22;39093;52.788;6.940;2022-10-16T02:50:16;13.10;99.90
53208;DHT22;39093;52.788;6.940;2022-10-16T02:52:43;13.20;99.90
53208;DHT22;39093;52.788;6.940;2022-10-16T02:55:10;13.30;99.90
53208;DHT22;39093;52.788;6.940;2022-10-16T02:57:37;13.20;99.90
53208;DHT22;39093;52.788;6.940;2022-10-16T03:00:06;13.20;99.90
53208;DHT22;39093;52.788;6.940;2022-10-16T03:02:33;13.20;99.90
53208;DHT22;39093;52.788;6.940;2022-10-16T03:05:00;13.10;99.90
53208;DHT22;39093;52.788;6.940;2022-10-16T03:07:27;13.20;99.90
53208;DHT22;39093;52.788;6.940;2022-10-16T03:09:54;13.30;99.90
53208;DHT22;39093;52.788;6.940;2022-10-16T03:12:22;13.40;99.90
53208;DHT22;39093;52.788;6.940;2022-10-16T03:14:49;13.40;99.90
53208;DHT22;39093;52.788;6.940;2022-10-16T03:17:15;13.40;99.90
53208;DHT22;39093;52.788;6.940;2022-10-16T03:19:43;13.40;99.90
53208;DHT22;39093;52.788;6.940;2022-10-16T03:22:10;13.50;99.90
53208;DHT22;39093;52.788;6.940;2022-10-16T03:24:37;13.50;99.90
53208;DHT22;39093;52.788;6.940;2022-10-16T03:27:04;13.40;99.90
53208;DHT22;39093;52.788;6.940;2022-10-16T03:29:32;13.50;99.90
53208;DHT22;39093;52.788;6.940;2022-10-16T03:31:59;13.50;99.90
53208;DHT22;39093;52.788;6.940;2022-10-16T03:34:27;13.50;99.90
53208;DHT22;39093;52.788;6.940;2022-10-16T03:36:54;13.50;99.90
53208;DHT22;39093;52.788;6.940;2022-10-16T03:39:21;13.60;99.90
53208;DHT22;39093;52.788;6.940;2022-10-16T03:41:48;13.50;99.90
53208;DHT22;39093;52.788;6.940;2022-10-16T03:44:15;13.50;99.90
53208;DHT22;39093;52.788;6.940;2022-10-16T03:46:41;13.40;99.90
53208;DHT22;39093;52.788;6.940;2022-10-16T03:49:08;13.40;99.90
53208;DHT22;39093;52.788;6.940;2022-10-16T03:51:35;13.50;99.90
53208;DHT22;39093;52.788;6.940;2022-10-16T03:54:02;13.50;99.90
53208;DHT22;39093;52.788;6.940;2022-10-16T03:56:29;13.40;99.90
53208;DHT22;39093;52.788;6.940;2022-10-16T03:58:56;13.40;99.90
53208;DHT22;39093;52.788;6.940;2022-10-16T04:01:23;13.40;99.90
53208;DHT22;39093;52.788;6.940;2022-10-16T04:03:50;13.40;99.90
53208;DHT22;39093;52.788;6.940;2022-10-16T04:06:17;13.50;99.90
53208;DHT22;39093;52.788;6.940;2022-10-16T04:08:44;13.50;99.90
53208;DHT22;39093;52.788;6.940;2022-10-16T04:11:11;13.60;99.90
53208;DHT22;39093;52.788;6.940;2022-10-16T04:13:38;13.50;99.90
53208;DHT22;39093;52.788;6.940;2022-10-16T04:16:05;13.60;99.90
53208;DHT22;39093;52.788;6.940;2022-10-16T04:18:32;13.50;99.90
53208;DHT22;39093;52.788;6.940;2022-10-16T04:21:03;13.50;99.90
53208;DHT22;39093;52.788;6.940;2022-10-16T04:23:31;13.60;99.90
53208;DHT22;39093;52.788;6.940;2022-10-16T04:25:59;13.60;99.90
53208;DHT22;39093;52.788;6.940;2022-10-16T04:28:27;13.60;99.90
53208;DHT22;39093;52.788;6.940;2022-10-16T04:30:54;13.60;99.90
53208;DHT22;39093;52.788;6.940;2022-10-16T04:33:21;13.60;99.90
53208;DHT22;39093;52.788;6.940;2022-10-16T04:35:48;13.60;99.90
53208;DHT22;39093;52.788;6.940;2022-10-16T04:38:15;13.50;99.90
53208;DHT22;39093;52.788;6.940;2022-10-16T04:40:42;13.50;99.90
53208;DHT22;39093;52.788;6.940;2022-10-16T04:43:09;13.50;99.90
53208;DHT22;39093;52.788;6.940;2022-10-16T04:45:37;13.50;99.90
53208;DHT22;39093;52.788;6.940;2022-10-16T04:48:04;13.50;99.90
53208;DHT22;39093;52.788;6.940;2022-10-16T04:50:30;13.40;99.90
53208;DHT22;39093;52.788;6.940;2022-10-16T04:52:57;13.40;99.90
53208;DHT22;39093;52.788;6.940;2022-10-16T04:55:24;13.40;99.90
53208;DHT22;39093;52.788;6.940;2022-10-16T04:57:51;13.50;99.90
53208;DHT22;39093;52.788;6.940;2022-10-16T05:00:18;13.50;99.90
53208;DHT22;39093;52.788;6.940;2022-10-16T05:02:45;13.40;99.90
53208;DHT22;39093;52.788;6.940;2022-10-16T05:05:11;13.40;99.90
53208;DHT22;39093;52.788;6.940;2022-10-16T05:07:38;13.40;99.90
53208;DHT22;39093;52.788;6.940;2022-10-16T05:10:05;13.40;99.90
53208;DHT22;39093;52.788;6.940;2022-10-16T05:12:33;13.40;99.90
53208;DHT22;39093;52.788;6.940;2022-10-16T05:15:00;13.30;99.90
53208;DHT22;39093;52.788;6.940;2022-10-16T05:17:27;13.40;99.90
53208;DHT22;39093;52.788;6.940;2022-10-16T05:19:54;13.40;99.90
53208;DHT22;39093;52.788;6.940;2022-10-16T05:22:22;13.40;99.90
53208;DHT22;39093;52.788;6.940;2022-10-16T05:24:49;13.40;99.90
53208;DHT22;39093;52.788;6.940;2022-10-16T05:27:15;13.40;99.90
53208;DHT22;39093;52.788;6.940;2022-10-16T05:29:46;13.50;99.90
53208;DHT22;39093;52.788;6.940;2022-10-16T05:32:15;13.40;99.90
53208;DHT22;39093;52.788;6.940;2022-10-16T05:34:43;13.40;99.90
53208;DHT22;39093;52.788;6.940;2022-10-16T05:37:10;13.30;99.90
53208;DHT22;39093;52.788;6.940;2022-10-16T05:39:38;13.30;99.90
53208;DHT22;39093;52.788;6.940;2022-10-16T05:42:05;13.30;99.90
53208;DHT22;39093;52.788;6.940;2022-10-16T05:44:32;13.30;99.90
53208;DHT22;39093;52.788;6.940;2022-10-16T05:46:59;13.30;99.90
53208;DHT22;39093;52.788;6.940;2022-10-16T05:49:26;13.20;99.90
53208;DHT22;39093;52.788;6.940;2022-10-16T05:51:53;13.20;99.90
53208;DHT22;39093;52.788;6.940;2022-10-16T05:54:20;13.10;99.90
53208;DHT22;39093;52.788;6.940;2022-10-16T05:56:46;13.20;99.90
53208;DHT22;39093;52.788;6.940;2022-10-16T05:59:13;13.10;99.90
53208;DHT22;39093;52.788;6.940;2022-10-16T06:01:40;13.20;99.90
53208;DHT22;39093;52.788;6.940;2022-10-16T06:04:08;13.10;99.90
53208;DHT22;39093;52.788;6.940;2022-10-16T06:06:35;13.10;99.90
53208;DHT22;39093;52.788;6.940;2022-10-16T06:09:03;13.20;99.90
53208;DHT22;39093;52.788;6.940;2022-10-16T06:11:32;13.10;99.90
53208;DHT22;39093;52.788;6.940;2022-10-16T06:14:01;13.20;99.90
53208;DHT22;39093;52.788;6.940;2022-10-16T06:16:35;13.20;99.90
53208;DHT22;39093;52.788;6.940;2022-10-16T06:19:03;13.30;99.90
53208;DHT22;39093;52.788;6.940;2022-10-16T06:21:33;13.20;99.90
53208;DHT22;39093;52.788;6.940;2022-10-16T06:24:00;13.30;99.90
53208;DHT22;39093;52.788;6.940;2022-10-16T06:26:29;13.20;99.90
53208;DHT22;39093;52.788;6.940;2022-10-16T06:28:58;13.30;99.90
53208;DHT22;39093;52.788;6.940;2022-10-16T06:31:25;13.20;99.90
53208;DHT22;39093;52.788;6.940;2022-10-16T06:33:55;13.30;99.90
53208;DHT22;39093;52.788;6.940;2022-10-16T06:36:23;13.30;99.90
53208;DHT22;39093;52.788;6.940;2022-10-16T06:38:51;13.40;99.90
53208;DHT22;39093;52.788;6.940;2022-10-16T06:41:21;13.30;99.90
53208;DHT22;39093;52.788;6.940;2022-10-16T06:43:48;13.40;99.90
53208;DHT22;39093;52.788;6.940;2022-10-16T06:46:17;13.40;99.90
53208;DHT22;39093;52.788;6.940;2022-10-16T06:48:44;13.40;99.90
53208;DHT22;39093;52.788;6.940;2022-10-16T06:51:14;13.30;99.90
53208;DHT22;39093;52.788;6.940;2022-10-16T06:53:47;13.30;99.90
53208;DHT22;39093;52.788;6.940;2022-10-16T06:56:29;13.30;99.90
53208;DHT22;39093;52.788;6.940;2022-10-16T06:58:58;13.40;99.90
53208;DHT22;39093;52.788;6.940;2022-10-16T07:01:25;13.40;99.90
53208;DHT22;39093;52.788;6.940;2022-10-16T07:03:53;13.40;99.90
53208;DHT22;39093;52.788;6.940;2022-10-16T07:06:23;13.40;99.90
53208;DHT22;39093;52.788;6.940;2022-10-16T07:08:50;13.40;99.90
53208;DHT22;39093;52.788;6.940;2022-10-16T07:11:20;13.30;99.90
53208;DHT22;39093;52.788;6.940;2022-10-16T07:13:47;13.40;99.90
53208;DHT22;39093;52.788;6.940;2022-10-16T07:16:23;13.60;99.90
53208;DHT22;39093;52.788;6.940;2022-10-16T07:18:51;13.50;99.90
53208;DHT22;39093;52.788;6.940;2022-10-16T07:21:21;13.50;99.90
53208;DHT22;39093;52.788;6.940;2022-10-16T07:23:58;13.70;99.90
53208;DHT22;39093;52.788;6.940;2022-10-16T07:26:26;13.60;99.90
53208;DHT22;39093;52.788;6.940;2022-10-16T07:28:53;13.70;99.90
53208;DHT22;39093;52.788;6.940;2022-10-16T07:31:21;13.80;99.90
53208;DHT22;39093;52.788;6.940;2022-10-16T07:33:48;13.80;99.90
53208;DHT22;39093;52.788;6.940;2022-10-16T07:36:17;13.70;99.90
53208;DHT22;39093;52.788;6.940;2022-10-16T07:38:45;13.80;99.90
53208;DHT22;39093;52.788;6.940;2022-10-16T07:41:18;13.80;99.90
53208;DHT22;39093;52.788;6.940;2022-10-16T07:43:50;13.90;99.90
53208;DHT22;39093;52.788;6.940;2022-10-16T07:46:18;13.90;99.90
53208;DHT22;39093;52.788;6.940;2022-10-16T07:48:46;13.90;99.90
53208;DHT22;39093;52.788;6.940;2022-10-16T07:51:17;14.00;99.90
53208;DHT22;39093;52.788;6.940;2022-10-16T07:53:45;14.10;99.90
53208;DHT22;39093;52.788;6.940;2022-10-16T07:56:13;14.10;99.90
53208;DHT22;39093;52.788;6.940;2022-10-16T07:58:40;14.20;99.90
53208;DHT22;39093;52.788;6.940;2022-10-16T08:01:09;14.20;99.90
53208;DHT22;39093;52.788;6.940;2022-10-16T08:03:37;14.20;99.90
53208;DHT22;39093;52.788;6.940;2022-10-16T08:06:04;14.10;99.90
53208;DHT22;39093;52.788;6.940;2022-10-16T08:08:31;14.10;99.90
53208;DHT22;39093;52.788;6.940;2022-10-16T08:10:59;14.20;99.90
53208;DHT22;39093;52.788;6.940;2022-10-16T08:13:25;14.10;99.90
53208;DHT22;39093;52.788;6.940;2022-10-16T08:15:54;14.20;99.90
53208;DHT22;39093;52.788;6.940;2022-10-16T08:18:21;14.20;99.90
53208;DHT22;39093;52.788;6.940;2022-10-16T08:20:58;14.40;99.90
53208;DHT22;39093;52.788;6.940;2022-10-16T08:23:26;14.30;99.90
53208;DHT22;39093;52.788;6.940;2022-10-16T08:25:54;14.50;99.90
53208;DHT22;39093;52.788;6.940;2022-10-16T08:28:22;14.40;99.90
53208;DHT22;39093;52.788;6.940;2022-10-16T08:30:49;14.40;99.90
53208;DHT22;39093;52.788;6.940;2022-10-16T08:33:16;14.50;99.90
53208;DHT22;39093;52.788;6.940;2022-10-16T08:35:49;14.50;99.90
53208;DHT22;39093;52.788;6.940;2022-10-16T08:38:16;14.50;99.90
53208;DHT22;39093;52.788;6.940;2022-10-16T08:40:43;14.60;99.90
53208;DHT22;39093;52.788;6.940;2022-10-16T08:43:17;14.50;99.90
53208;DHT22;39093;52.788;6.940;2022-10-16T08:49:22;14.70;99.90
53208;DHT22;39093;52.788;6.940;2022-10-16T08:51:51;14.70;99.90
53208;DHT22;39093;52.788;6.940;2022-10-16T08:54:34;14.70;99.90
53208;DHT22;39093;52.788;6.940;2022-10-16T08:59:39;14.80;99.90
53208;DHT22;39093;52.788;6.940;2022-10-16T09:02:37;14.90;99.90
53208;DHT22;39093;52.788;6.940;2022-10-16T09:15:52;15.10;99.90
53208;DHT22;39093;52.788;6.940;2022-10-16T09:21:26;15.10;99.90
53208;DHT22;39093;52.788;6.940;2022-10-16T09:23:59;15.00;99.90
53208;DHT22;39093;52.788;6.940;2022-10-16T09:26:26;15.10;99.90
53208;DHT22;39093;52.788;6.940;2022-10-16T09:28:53;15.20;99.90
53208;DHT22;39093;52.788;6.940;2022-10-16T09:31:22;15.20;99.90
53208;DHT22;39093;52.788;6.940;2022-10-16T09:34:00;15.10;99.90
53208;DHT22;39093;52.788;6.940;2022-10-16T09:36:40;15.20;99.90
53208;DHT22;39093;52.788;6.940;2022-10-16T09:39:11;15.20;99.90
53208;DHT22;39093;52.788;6.940;2022-10-16T09:41:44;15.20;99.90
53208;DHT22;39093;52.788;6.940;2022-10-16T09:44:30;15.40;99.90
53208;DHT22;39093;52.788;6.940;2022-10-16T09:47:18;15.40;99.90
53208;DHT22;39093;52.788;6.940;2022-10-16T09:49:57;15.40;99.90
53208;DHT22;39093;52.788;6.940;2022-10-16T09:52:26;15.50;99.90
53208;DHT22;39093;52.788;6.940;2022-10-16T09:55:00;15.50;99.90
53208;DHT22;39093;52.788;6.940;2022-10-16T09:57:28;15.60;99.90
53208;DHT22;39093;52.788;6.940;2022-10-16T09:59:58;15.80;99.90
53208;DHT22;39093;52.788;6.940;2022-10-16T10:02:36;15.80;99.90
53208;DHT22;39093;52.788;6.940;2022-10-16T10:05:06;15.80;99.90
53208;DHT22;39093;52.788;6.940;2022-10-16T10:07:40;15.80;99.90
53208;DHT22;39093;52.788;6.940;2022-10-16T10:10:24;15.70;99.90
53208;DHT22;39093;52.788;6.940;2022-10-16T10:12:51;15.80;99.90
53208;DHT22;39093;52.788;6.940;2022-10-16T10:15:18;15.80;99.90
53208;DHT22;39093;52.788;6.940;2022-10-16T10:17:54;15.80;99.90
53208;DHT22;39093;52.788;6.940;2022-10-16T10:20:24;15.80;99.90
53208;DHT22;39093;52.788;6.940;2022-10-16T10:22:51;15.90;99.90
53208;DHT22;39093;52.788;6.940;2022-10-16T10:25:46;15.90;99.90
53208;DHT22;39093;52.788;6.940;2022-10-16T10:28:42;15.80;99.90
53208;DHT22;39093;52.788;6.940;2022-10-16T10:45:28;16.40;99.90
53208;DHT22;39093;52.788;6.940;2022-10-16T10:51:05;16.60;99.90
53208;DHT22;39093;52.788;6.940;2022-10-16T10:53:42;16.70;99.90
53208;DHT22;39093;52.788;6.940;2022-10-16T11:02:29;16.60;99.90
53208;DHT22;39093;52.788;6.940;2022-10-16T11:07:36;16.60;99.90
53208;DHT22;39093;52.788;6.940;2022-10-16T11:10:21;16.60;99.90
53208;DHT22;39093;52.788;6.940;2022-10-16T11:12:52;16.80;99.90
53208;DHT22;39093;52.788;6.940;2022-10-16T11:20:49;16.40;99.90
53208;DHT22;39093;52.788;6.940;2022-10-16T11:23:58;16.40;99.90
53208;DHT22;39093;52.788;6.940;2022-10-16T11:26:30;16.30;99.90
53208;DHT22;39093;52.788;6.940;2022-10-16T11:28:59;16.20;99.90
53208;DHT22;39093;52.788;6.940;2022-10-16T11:31:35;16.10;99.90
53208;DHT22;39093;52.788;6.940;2022-10-16T11:34:09;16.00;99.90
53208;DHT22;39093;52.788;6.940;2022-10-16T11:36:47;15.90;99.90
53208;DHT22;39093;52.788;6.940;2022-10-16T11:39:29;15.90;99.90
53208;DHT22;39093;52.788;6.940;2022-10-16T11:45:03;16.10;99.90
53208;DHT22;39093;52.788;6.940;2022-10-16T11:47:44;16.30;99.90
53208;DHT22;39093;52.788;6.940;2022-10-16T11:50:39;16.60;99.90
53208;DHT22;39093;52.788;6.940;2022-10-16T11:55:43;17.10;99.90
53208;DHT22;39093;52.788;6.940;2022-10-16T11:58:33;17.10;99.90
53208;DHT22;39093;52.788;6.940;2022-10-16T12:01:24;17.10;99.90
53208;DHT22;39093;52.788;6.940;2022-10-16T12:07:24;17.40;99.90
53208;DHT22;39093;52.788;6.940;2022-10-16T12:09:53;17.50;99.90
53208;DHT22;39093;52.788;6.940;2022-10-16T12:17:56;17.90;99.90
53208;DHT22;39093;52.788;6.940;2022-10-16T12:20:28;18.00;99.90
53208;DHT22;39093;52.788;6.940;2022-10-16T12:23:20;18.10;99.90
53208;DHT22;39093;52.788;6.940;2022-10-16T12:25:55;18.30;99.90
53208;DHT22;39093;52.788;6.940;2022-10-16T12:28:26;18.60;99.90
53208;DHT22;39093;52.788;6.940;2022-10-16T12:31:00;18.80;99.90
53208;DHT22;39093;52.788;6.940;2022-10-16T12:33:39;19.10;99.90
53208;DHT22;39093;52.788;6.940;2022-10-16T12:36:14;19.30;99.90
53208;DHT22;39093;52.788;6.940;2022-10-16T12:38:46;19.40;99.90
53208;DHT22;39093;52.788;6.940;2022-10-16T12:41:28;19.60;99.20
53208;DHT22;39093;52.788;6.940;2022-10-16T12:43:56;19.80;99.70
53208;DHT22;39093;52.788;6.940;2022-10-16T12:51:42;20.80;97.30
53208;DHT22;39093;52.788;6.940;2022-10-16T12:54:15;20.70;97.90
53208;DHT22;39093;52.788;6.940;2022-10-16T13:06:08;23.60;94.00
53208;DHT22;39093;52.788;6.940;2022-10-16T13:09:02;24.30;91.90
53208;DHT22;39093;52.788;6.940;2022-10-16T13:16:54;24.70;90.00
53208;DHT22;39093;52.788;6.940;2022-10-16T13:25:33;25.80;84.50
53208;DHT22;39093;52.788;6.940;2022-10-16T13:28:10;25.60;81.80
53208;DHT22;39093;52.788;6.940;2022-10-16T13:30:51;25.90;82.60
53208;DHT22;39093;52.788;6.940;2022-10-16T13:33:41;25.90;84.00
53208;DHT22;39093;52.788;6.940;2022-10-16T13:36:23;26.20;80.50
53208;DHT22;39093;52.788;6.940;2022-10-16T13:41:37;26.40;78.90
53208;DHT22;39093;52.788;6.940;2022-10-16T13:44:04;26.50;79.20
53208;DHT22;39093;52.788;6.940;2022-10-16T13:46:31;26.60;80.90
53208;DHT22;39093;52.788;6.940;2022-10-16T13:49:19;26.90;81.80
53208;DHT22;39093;52.788;6.940;2022-10-16T13:51:57;27.10;78.70
53208;DHT22;39093;52.788;6.940;2022-10-16T13:54:26;27.10;77.80
53208;DHT22;39093;52.788;6.940;2022-10-16T13:56:53;26.80;77.60
53208;DHT22;39093;52.788;6.940;2022-10-16T13:59:36;26.80;78.80
53208;DHT22;39093;52.788;6.940;2022-10-16T14:02:21;26.70;77.30
53208;DHT22;39093;52.788;6.940;2022-10-16T14:04:49;26.30;76.90
53208;DHT22;39093;52.788;6.940;2022-10-16T14:07:25;25.90;74.50
53208;DHT22;39093;52.788;6.940;2022-10-16T14:09:53;25.20;75.90
53208;DHT22;39093;52.788;6.940;2022-10-16T14:12:21;24.70;76.00
53208;DHT22;39093;52.788;6.940;2022-10-16T14:14:54;24.00;77.20
53208;DHT22;39093;52.788;6.940;2022-10-16T14:17:24;23.30;80.30
53208;DHT22;39093;52.788;6.940;2022-10-16T14:19:55;23.20;81.10
53208;DHT22;39093;52.788;6.940;2022-10-16T14:22:38;23.20;82.40
53208;DHT22;39093;52.788;6.940;2022-10-16T14:28:15;22.80;82.30
53208;DHT22;39093;52.788;6.940;2022-10-16T14:31:25;22.40;82.60
53208;DHT22;39093;52.788;6.940;2022-10-16T14:33:52;21.70;83.90
53208;DHT22;39093;52.788;6.940;2022-10-16T14:36:20;21.00;86.80
53208;DHT22;39093;52.788;6.940;2022-10-16T14:39:17;20.80;86.80
53208;DHT22;39093;52.788;6.940;2022-10-16T14:41:47;20.30;89.80
53208;DHT22;39093;52.788;6.940;2022-10-16T14:44:17;20.10;89.40
53208;DHT22;39093;52.788;6.940;2022-10-16T14:46:45;19.80;90.00
53208;DHT22;39093;52.788;6.940;2022-10-16T14:51:40;19.50;91.10
53208;DHT22;39093;52.788;6.940;2022-10-16T14:54:09;19.30;92.10
53208;DHT22;39093;52.788;6.940;2022-10-16T14:56:51;19.20;92.50
53208;DHT22;39093;52.788;6.940;2022-10-16T14:59:35;19.10;92.60
53208;DHT22;39093;52.788;6.940;2022-10-16T15:04:47;18.90;93.20
53208;DHT22;39093;52.788;6.940;2022-10-16T15:07:14;18.80;93.70
53208;DHT22;39093;52.788;6.940;2022-10-16T15:09:41;18.80;94.00
53208;DHT22;39093;52.788;6.940;2022-10-16T15:12:15;18.70;94.00
53208;DHT22;39093;52.788;6.940;2022-10-16T15:14:43;18.70;94.40
53208;DHT22;39093;52.788;6.940;2022-10-16T15:17:11;18.60;94.70
53208;DHT22;39093;52.788;6.940;2022-10-16T15:19:38;18.50;94.70
53208;DHT22;39093;52.788;6.940;2022-10-16T15:22:05;18.40;95.20
53208;DHT22;39093;52.788;6.940;2022-10-16T15:24:32;18.40;95.50
53208;DHT22;39093;52.788;6.940;2022-10-16T15:26:58;18.30;95.40
53208;DHT22;39093;52.788;6.940;2022-10-16T15:29:25;18.30;95.90
53208;DHT22;39093;52.788;6.940;2022-10-16T15:31:52;18.20;96.30
53208;DHT22;39093;52.788;6.940;2022-10-16T15:34:19;18.20;96.40
53208;DHT22;39093;52.788;6.940;2022-10-16T15:36:46;18.10;96.90
53208;DHT22;39093;52.788;6.940;2022-10-16T15:39:14;18.10;97.20
53208;DHT22;39093;52.788;6.940;2022-10-16T15:41:42;18.00;97.00
53208;DHT22;39093;52.788;6.940;2022-10-16T15:44:09;17.90;97.20
53208;DHT22;39093;52.788;6.940;2022-10-16T15:46:36;17.90;97.80
53208;DHT22;39093;52.788;6.940;2022-10-16T15:49:03;17.80;98.00
53208;DHT22;39093;52.788;6.940;2022-10-16T15:51:31;17.80;98.60
53208;DHT22;39093;52.788;6.940;2022-10-16T15:54:00;17.80;99.20
53208;DHT22;39093;52.788;6.940;2022-10-16T15:56:29;17.70;99.40
53208;DHT22;39093;52.788;6.940;2022-10-16T15:58:57;17.60;99.90
53208;DHT22;39093;52.788;6.940;2022-10-16T16:01:25;17.60;99.90
53208;DHT22;39093;52.788;6.940;2022-10-16T16:03:53;17.50;99.90
53208;DHT22;39093;52.788;6.940;2022-10-16T16:06:21;17.40;99.90
53208;DHT22;39093;52.788;6.940;2022-10-16T16:08:50;17.40;99.90
53208;DHT22;39093;52.788;6.940;2022-10-16T16:11:18;17.30;99.90
53208;DHT22;39093;52.788;6.940;2022-10-16T16:13:46;17.20;99.90
53208;DHT22;39093;52.788;6.940;2022-10-16T16:16:15;17.10;99.90
53208;DHT22;39093;52.788;6.940;2022-10-16T16:18:42;17.00;99.90
53208;DHT22;39093;52.788;6.940;2022-10-16T16:21:13;16.90;99.90
53208;DHT22;39093;52.788;6.940;2022-10-16T16:23:39;16.80;99.90
53208;DHT22;39093;52.788;6.940;2022-10-16T16:26:16;16.80;99.90
53208;DHT22;39093;52.788;6.940;2022-10-16T16:28:48;16.70;99.90
53208;DHT22;39093;52.788;6.940;2022-10-16T16:31:15;16.60;99.90
53208;DHT22;39093;52.788;6.940;2022-10-16T16:33:42;16.50;99.90
53208;DHT22;39093;52.788;6.940;2022-10-16T16:36:09;16.40;99.90
53208;DHT22;39093;52.788;6.940;2022-10-16T16:38:41;16.30;99.90
53208;DHT22;39093;52.788;6.940;2022-10-16T16:41:24;16.20;99.90
53208;DHT22;39093;52.788;6.940;2022-10-16T16:43:53;16.20;99.90
53208;DHT22;39093;52.788;6.940;2022-10-16T16:46:20;16.10;99.90
53208;DHT22;39093;52.788;6.940;2022-10-16T16:48:48;16.00;99.90
53208;DHT22;39093;52.788;6.940;2022-10-16T16:51:17;15.90;99.90
53208;DHT22;39093;52.788;6.940;2022-10-16T16:53:48;15.80;99.90
53208;DHT22;39093;52.788;6.940;2022-10-16T16:56:17;15.70;99.90
53208;DHT22;39093;52.788;6.940;2022-10-16T16:58:48;15.70;99.90
53208;DHT22;39093;52.788;6.940;2022-10-16T17:01:16;15.70;99.90
53208;DHT22;39093;52.788;6.940;2022-10-16T17:03:48;15.70;99.90
53208;DHT22;39093;52.788;6.940;2022-10-16T17:06:17;15.60;99.90
53208;DHT22;39093;52.788;6.940;2022-10-16T17:08:47;15.60;99.90
53208;DHT22;39093;52.788;6.940;2022-10-16T17:11:19;15.50;99.90
53208;DHT22;39093;52.788;6.940;2022-10-16T17:13:47;15.50;99.90
53208;DHT22;39093;52.788;6.940;2022-10-16T17:16:23;15.40;99.90
53208;DHT22;39093;52.788;6.940;2022-10-16T17:18:50;15.40;99.90
53208;DHT22;39093;52.788;6.940;2022-10-16T17:21:19;15.30;99.90
53208;DHT22;39093;52.788;6.940;2022-10-16T17:23:46;15.30;99.90
53208;DHT22;39093;52.788;6.940;2022-10-16T17:26:17;15.20;99.90
53208;DHT22;39093;52.788;6.940;2022-10-16T17:28:44;15.20;99.90
53208;DHT22;39093;52.788;6.940;2022-10-16T17:31:16;15.10;99.90
53208;DHT22;39093;52.788;6.940;2022-10-16T17:33:44;15.00;99.90
53208;DHT22;39093;52.788;6.940;2022-10-16T17:36:12;14.90;99.90
53208;DHT22;39093;52.788;6.940;2022-10-16T17:38:41;14.90;99.90
53208;DHT22;39093;52.788;6.940;2022-10-16T17:41:22;14.80;99.90
53208;DHT22;39093;52.788;6.940;2022-10-16T17:43:50;14.70;99.90
53208;DHT22;39093;52.788;6.940;2022-10-16T17:46:20;14.60;99.90
53208;DHT22;39093;52.788;6.940;2022-10-16T17:48:49;14.60;99.90
53208;DHT22;39093;52.788;6.940;2022-10-16T17:51:20;14.50;99.90